Time;durP1;ratioP1;P1;durP2;ratioP2;P2;SDS_P1;SDS_P2;PMS_P1;PMS_P2;Temp;Humidity;BMP_temperature;BMP_pressure;BME280_temperature;BME280_humidity;BME280_pressure;Samples;Min_cycle;Max_cycle;Signal;HPM_P1;HPM_P2
2022/06/01 00:02:15;;;;;;;1.80;1.70;;;24.00;47.90;;;;;;5031538;28;20545;-81
2022/06/01 00:04:44;;;;;;;3.23;2.00;;;24.00;47.80;;;;;;5029212;28;20418;-79
2022/06/01 00:07:12;;;;;;;5.33;2.47;;;24.00;47.70;;;;;;5037097;28;20453;-81
2022/06/01 00:09:40;;;;;;;2.10;1.90;;;24.00;47.60;;;;;;5037020;28;20432;-81
2022/06/01 00:12:09;;;;;;;3.20;1.87;;;24.00;47.80;;;;;;5037342;28;20461;-81
2022/06/01 00:14:37;;;;;;;2.10;2.00;;;24.00;47.60;;;;;;5037744;28;20453;-81
2022/06/01 00:17:06;;;;;;;3.50;2.10;;;24.00;47.70;;;;;;5033513;28;20454;-81
2022/06/01 00:19:34;;;;;;;2.27;2.10;;;24.00;47.80;;;;;;5029055;28;20442;-81
2022/06/01 00:22:16;;;;;;;2.00;1.90;;;24.00;47.80;;;;;;5037356;28;20521;-81
2022/06/01 00:24:46;;;;;;;1.70;1.60;;;24.00;47.70;;;;;;5036674;28;20457;-80
2022/06/01 00:27:15;;;;;;;2.53;1.77;;;23.90;47.70;;;;;;5036780;28;20452;-82
2022/06/01 00:29:43;;;;;;;2.80;2.00;;;23.90;47.70;;;;;;5037151;28;20446;-80
2022/06/01 00:32:14;;;;;;;1.73;1.63;;;23.90;47.60;;;;;;5036931;28;20467;-78
2022/06/01 00:34:42;;;;;;;2.70;2.00;;;23.90;47.70;;;;;;5024295;28;20464;-81
2022/06/01 00:37:10;;;;;;;3.03;2.10;;;23.90;47.70;;;;;;5036833;28;20432;-81
2022/06/01 00:39:38;;;;;;;2.53;1.80;;;23.90;47.70;;;;;;5037060;28;20482;-81
2022/06/01 00:42:12;;;;;;;1.90;1.80;;;23.90;48.40;;;;;;5036669;28;20510;-81
2022/06/01 00:44:40;;;;;;;2.20;2.00;;;23.90;47.80;;;;;;5036547;28;20490;-81
2022/06/01 00:47:10;;;;;;;3.83;2.10;;;23.90;47.80;;;;;;5036610;28;20516;-81
2022/06/01 00:49:40;;;;;;;2.00;1.87;;;23.90;47.70;;;;;;5027488;28;20422;-82
2022/06/01 00:52:08;;;;;;;2.03;1.93;;;23.90;47.70;;;;;;5029737;28;20481;-81
2022/06/01 00:54:36;;;;;;;2.03;1.90;;;23.90;47.60;;;;;;5036376;28;20482;-81
2022/06/01 00:57:06;;;;;;;2.23;2.03;;;23.90;47.70;;;;;;5036088;28;20486;-81
2022/06/01 00:59:35;;;;;;;1.90;1.80;;;23.90;47.80;;;;;;5036288;28;20476;-80
2022/06/01 01:02:04;;;;;;;1.97;1.80;;;23.90;47.60;;;;;;5035453;28;20476;-81
2022/06/01 01:04:33;;;;;;;2.30;1.87;;;23.90;47.70;;;;;;5035989;28;20457;-81
2022/06/01 01:07:06;;;;;;;2.30;2.10;;;23.90;47.60;;;;;;5027557;28;20771;-82
2022/06/01 01:09:35;;;;;;;2.10;2.00;;;23.90;47.80;;;;;;5033061;28;20512;-80
2022/06/01 01:12:06;;;;;;;2.20;2.00;;;23.90;47.70;;;;;;5035882;28;20467;-81
2022/06/01 01:14:36;;;;;;;1.80;1.70;;;23.90;47.70;;;;;;5036384;28;20414;-81
2022/06/01 01:17:05;;;;;;;1.93;1.83;;;23.90;47.60;;;;;;5035157;28;20422;-83
2022/06/01 01:19:34;;;;;;;2.20;1.57;;;23.90;47.70;;;;;;5036183;28;20467;-81
2022/06/01 01:22:20;;;;;;;2.10;1.90;;;23.90;47.60;;;;;;5036409;28;20449;-82
2022/06/01 01:25:04;;;;;;;2.00;1.83;;;23.90;47.50;;;;;;5028530;28;20467;-81
2022/06/01 01:27:34;;;;;;;2.00;1.90;;;23.90;47.60;;;;;;5032020;28;20460;-81
2022/06/01 01:30:02;;;;;;;1.93;1.83;;;23.90;47.50;;;;;;5036064;28;20471;-81
2022/06/01 01:32:30;;;;;;;2.80;1.50;;;23.90;47.60;;;;;;5035483;28;20438;-81
2022/06/01 01:34:58;;;;;;;1.83;1.70;;;23.90;47.40;;;;;;5036602;28;20414;-81
2022/06/01 01:37:27;;;;;;;1.53;1.47;;;23.90;48.30;;;;;;5035802;28;20454;-80
2022/06/01 01:39:55;;;;;;;2.33;1.57;;;23.90;47.60;;;;;;5035622;28;20580;-81
2022/06/01 01:42:24;;;;;;;1.63;1.53;;;23.90;47.50;;;;;;5029321;28;20529;-81
2022/06/01 01:44:56;;;;;;;3.53;1.80;;;23.90;47.50;;;;;;5027449;28;20452;-81
2022/06/01 01:47:24;;;;;;;1.70;1.60;;;23.90;47.40;;;;;;5035239;28;20481;-82
2022/06/01 01:49:52;;;;;;;2.10;1.90;;;23.90;47.70;;;;;;5035836;28;20446;-82
2022/06/01 01:52:20;;;;;;;1.50;1.40;;;23.90;47.50;;;;;;5035310;28;20481;-81
2022/06/01 01:54:50;;;;;;;2.27;2.17;;;23.90;47.60;;;;;;5035753;28;20451;-81
2022/06/01 01:57:31;;;;;;;5.70;1.90;;;23.90;47.60;;;;;;5033543;28;20514;-81
2022/06/01 02:00:10;;;;;;;1.60;1.50;;;23.90;47.60;;;;;;5023988;28;20472;-81
2022/06/01 02:02:41;;;;;;;1.73;1.67;;;23.80;47.40;;;;;;5016115;28;20465;-81
2022/06/01 02:08:02;;;;;;;1.70;1.60;;;23.80;47.40;;;;;;5015921;28;21140;-81
2022/06/01 02:13:15;;;;;;;1.87;1.77;;;23.80;47.40;;;;;;5016703;28;20510;-81
2022/06/01 02:15:44;;;;;;;2.27;1.70;;;23.80;47.50;;;;;;5023083;28;20461;-82
2022/06/01 02:18:13;;;;;;;1.73;1.63;;;23.80;47.50;;;;;;5029580;28;20446;-82
2022/06/01 02:20:43;;;;;;;1.70;1.60;;;23.80;47.60;;;;;;5035120;28;20555;-81
2022/06/01 02:23:13;;;;;;;1.80;1.70;;;23.80;47.50;;;;;;5040607;28;21004;-81
2022/06/01 02:25:42;;;;;;;1.80;1.70;;;23.80;47.60;;;;;;5035967;28;20435;-81
2022/06/01 02:28:10;;;;;;;2.10;1.90;;;23.80;47.80;;;;;;5035979;28;20447;-82
2022/06/01 02:30:39;;;;;;;2.10;2.00;;;23.80;47.60;;;;;;5033170;28;20485;-81
2022/06/01 02:33:09;;;;;;;1.57;1.57;;;23.80;47.50;;;;;;5031998;28;20447;-82
2022/06/01 02:35:41;;;;;;;1.43;1.33;;;23.80;47.60;;;;;;5039491;28;20447;-82
2022/06/01 02:38:12;;;;;;;1.63;1.53;;;23.70;47.60;;;;;;5039744;28;20504;-82
2022/06/01 02:40:40;;;;;;;1.90;1.80;;;23.70;47.60;;;;;;5039016;28;20479;-81
2022/06/01 02:43:08;;;;;;;1.60;1.50;;;23.80;47.80;;;;;;5039600;28;20513;-83
2022/06/01 02:45:36;;;;;;;2.40;1.60;;;23.70;47.40;;;;;;5039466;28;20478;-81
2022/06/01 02:48:05;;;;;;;1.90;1.50;;;23.80;47.70;;;;;;5029351;28;20448;-81
2022/06/01 02:50:35;;;;;;;1.83;1.70;;;23.70;47.30;;;;;;5035910;28;20614;-80
2022/06/01 02:53:04;;;;;;;1.63;1.60;;;23.70;47.50;;;;;;5039337;28;20455;-80
2022/06/01 02:55:33;;;;;;;1.83;1.70;;;23.70;47.70;;;;;;5039109;28;20521;-81
2022/06/01 02:58:01;;;;;;;1.70;1.60;;;23.70;47.50;;;;;;5038918;28;20444;-81
2022/06/01 03:00:30;;;;;;;1.97;1.73;;;23.70;47.70;;;;;;5038315;28;20449;-81
2022/06/01 03:02:59;;;;;;;2.10;1.90;;;23.70;47.50;;;;;;5031641;28;20430;-82
2022/06/01 03:05:28;;;;;;;1.67;1.53;;;23.70;48.20;;;;;;5034098;28;20455;-81
2022/06/01 03:07:58;;;;;;;1.97;1.87;;;23.70;47.40;;;;;;5038255;28;20491;-81
2022/06/01 03:10:26;;;;;;;3.43;1.70;;;23.70;47.60;;;;;;5037732;28;20457;-82
2022/06/01 03:12:54;;;;;;;1.90;1.80;;;23.70;47.50;;;;;;5037645;28;20493;-81
2022/06/01 03:15:23;;;;;;;1.70;1.60;;;23.70;47.50;;;;;;5037320;28;20426;-81
2022/06/01 03:17:53;;;;;;;5.33;1.80;;;23.70;47.50;;;;;;5037226;28;20476;-82
2022/06/01 03:20:22;;;;;;;1.37;1.37;;;23.70;47.60;;;;;;5028471;28;20445;-82
2022/06/01 03:22:57;;;;;;;1.50;1.40;;;23.70;47.40;;;;;;5017610;28;20456;-82
2022/06/01 03:25:26;;;;;;;1.70;1.57;;;23.70;47.50;;;;;;5017185;28;20529;-81
2022/06/01 03:27:57;;;;;;;1.70;1.60;;;23.70;47.40;;;;;;5017697;28;20453;-81
2022/06/01 03:30:25;;;;;;;2.03;1.53;;;23.70;47.60;;;;;;5017160;28;20419;-81
2022/06/01 03:32:53;;;;;;;1.80;1.70;;;23.70;47.40;;;;;;5017863;28;20978;-82
2022/06/01 03:35:24;;;;;;;1.70;1.60;;;23.70;47.40;;;;;;5016607;28;20518;-81
2022/06/01 03:37:52;;;;;;;1.50;1.40;;;23.70;47.50;;;;;;5027464;28;20488;-81
2022/06/01 03:40:23;;;;;;;1.80;1.70;;;23.70;47.50;;;;;;5034979;28;20987;-81
2022/06/01 03:42:51;;;;;;;1.57;1.57;;;23.70;47.50;;;;;;5036817;28;20407;-82
2022/06/01 03:48:08;;;;;;;1.60;1.50;;;23.70;47.60;;;;;;5036308;28;20410;-82
2022/06/01 03:50:37;;;;;;;1.60;1.50;;;23.70;47.40;;;;;;5036517;28;20463;-82
2022/06/01 03:53:05;;;;;;;2.37;1.70;;;23.70;47.50;;;;;;5030514;28;20464;-82
2022/06/01 03:55:36;;;;;;;1.90;1.80;;;23.60;47.40;;;;;;5028136;28;20551;-81
2022/06/01 03:58:04;;;;;;;1.60;1.50;;;23.60;47.50;;;;;;5036612;28;20472;-81
2022/06/01 04:00:32;;;;;;;2.70;1.90;;;23.60;47.40;;;;;;5036472;28;20566;-82
2022/06/01 04:03:00;;;;;;;1.70;1.60;;;23.60;47.50;;;;;;5036457;28;20471;-82
2022/06/01 04:05:28;;;;;;;1.90;1.80;;;23.60;47.60;;;;;;5036631;28;20443;-82
2022/06/01 04:07:56;;;;;;;1.80;1.70;;;23.60;47.40;;;;;;5035939;28;20497;-82
2022/06/01 04:10:24;;;;;;;1.77;1.67;;;23.60;47.30;;;;;;5026399;28;20515;-81
2022/06/01 04:12:59;;;;;;;1.80;1.70;;;23.60;47.50;;;;;;4996500;28;20444;-80
2022/06/01 04:15:28;;;;;;;1.70;1.60;;;23.60;47.40;;;;;;4996270;28;20451;-81
2022/06/01 04:17:55;;;;;;;1.80;1.70;;;23.60;47.20;;;;;;4996791;28;20416;-81
2022/06/01 04:20:24;;;;;;;3.03;1.73;;;23.60;47.40;;;;;;4996262;28;20446;-81
2022/06/01 04:22:54;;;;;;;1.87;1.77;;;23.60;47.50;;;;;;4996170;28;20441;-81
2022/06/01 04:25:22;;;;;;;2.70;1.67;;;23.60;47.30;;;;;;5011433;28;21039;-82
2022/06/01 04:27:50;;;;;;;1.73;1.63;;;23.60;47.30;;;;;;5027084;28;20439;-82
2022/06/01 04:30:21;;;;;;;1.83;1.73;;;23.60;47.30;;;;;;5035949;28;20418;-82
2022/06/01 04:32:50;;;;;;;1.77;1.67;;;23.60;47.40;;;;;;5035551;28;20497;-80
2022/06/01 04:35:18;;;;;;;1.67;1.67;;;23.70;47.40;;;;;;5036463;28;20475;-81
2022/06/01 04:37:46;;;;;;;1.60;1.60;;;23.60;47.20;;;;;;5035667;28;20441;-81
2022/06/01 04:40:15;;;;;;;2.00;1.57;;;23.60;47.40;;;;;;5028467;28;20481;-80
2022/06/01 04:42:43;;;;;;;1.83;1.73;;;23.70;47.40;;;;;;5024488;28;20472;-81
2022/06/01 04:45:12;;;;;;;1.90;1.80;;;23.60;47.20;;;;;;5027350;28;20452;-81
2022/06/01 04:47:42;;;;;;;1.60;1.60;;;23.60;47.20;;;;;;5035982;28;20448;-80
2022/06/01 04:50:11;;;;;;;1.70;1.60;;;23.60;47.30;;;;;;5038068;28;20669;-80
2022/06/01 04:52:39;;;;;;;2.00;1.90;;;23.60;47.20;;;;;;5037657;28;20456;-81
2022/06/01 04:55:08;;;;;;;1.97;1.77;;;23.60;47.30;;;;;;5035401;28;20447;-81
2022/06/01 04:57:37;;;;;;;1.73;1.63;;;23.60;47.10;;;;;;5031494;28;20434;-81
2022/06/01 05:00:06;;;;;;;1.90;1.80;;;23.60;47.20;;;;;;5027159;28;20439;-81
2022/06/01 05:02:34;;;;;;;1.67;1.57;;;23.60;47.20;;;;;;5034507;28;20480;-82
2022/06/01 05:05:04;;;;;;;1.53;1.40;;;23.60;47.20;;;;;;5035254;28;20426;-81
2022/06/01 05:07:32;;;;;;;1.77;1.67;;;23.70;47.40;;;;;;5034989;28;20450;-81
2022/06/01 05:10:00;;;;;;;1.90;1.80;;;23.70;47.40;;;;;;5035032;28;20418;-79
2022/06/01 05:12:28;;;;;;;2.40;2.20;;;23.70;47.10;;;;;;5034728;28;20464;-81
2022/06/01 05:14:56;;;;;;;2.20;2.10;;;23.60;47.20;;;;;;5023152;28;20416;-81
2022/06/01 05:17:25;;;;;;;1.60;1.60;;;23.70;47.20;;;;;;5030075;28;20453;-81
2022/06/01 05:19:52;;;;;;;1.90;1.80;;;23.70;47.20;;;;;;5034772;28;20406;-81
2022/06/01 05:22:22;;;;;;;2.40;1.70;;;23.70;47.00;;;;;;5034197;28;20470;-81
2022/06/01 05:24:50;;;;;;;2.30;2.10;;;23.70;47.00;;;;;;5034330;28;20443;-81
2022/06/01 05:27:18;;;;;;;1.50;1.40;;;23.70;47.00;;;;;;5034764;28;20492;-81
2022/06/01 05:29:46;;;;;;;2.10;2.00;;;23.70;47.00;;;;;;5029512;28;20501;-81
2022/06/01 05:32:14;;;;;;;2.00;1.90;;;23.70;47.00;;;;;;5026657;28;20433;-81
2022/06/01 05:34:42;;;;;;;2.30;2.20;;;23.80;46.90;;;;;;5035991;28;20457;-81
2022/06/01 05:37:10;;;;;;;2.00;1.90;;;23.80;47.00;;;;;;5038722;28;20483;-80
2022/06/01 05:39:40;;;;;;;2.13;1.90;;;23.80;46.90;;;;;;5037817;28;20441;-81
2022/06/01 05:42:09;;;;;;;1.90;1.80;;;23.80;46.80;;;;;;5036895;28;20509;-82
2022/06/01 05:44:37;;;;;;;2.00;1.90;;;23.80;46.70;;;;;;5037206;28;20422;-81
2022/06/01 05:47:05;;;;;;;1.80;1.70;;;23.80;46.90;;;;;;5031231;28;20435;-81
2022/06/01 05:49:33;;;;;;;1.60;1.50;;;23.80;47.00;;;;;;5032384;28;20536;-79
2022/06/01 05:52:01;;;;;;;1.93;1.83;;;23.80;46.70;;;;;;5015297;28;20527;-81
2022/06/01 05:54:29;;;;;;;1.70;1.60;;;23.80;46.80;;;;;;5015351;28;20543;-81
2022/06/01 05:56:59;;;;;;;3.13;2.00;;;23.80;46.80;;;;;;5015323;28;20446;-80
2022/06/01 05:59:31;;;;;;;2.07;1.97;;;23.80;46.70;;;;;;5015176;28;20438;-81
2022/06/01 06:02:00;;;;;;;1.80;1.70;;;23.80;46.70;;;;;;5015213;28;20450;-81
2022/06/01 06:04:28;;;;;;;1.97;1.87;;;23.80;46.60;;;;;;5021134;28;20452;-81
2022/06/01 06:06:56;;;;;;;2.00;1.90;;;23.90;47.40;;;;;;5015491;28;20432;-81
2022/06/01 06:09:24;;;;;;;1.70;1.60;;;23.90;46.70;;;;;;5015308;28;20449;-81
2022/06/01 06:11:53;;;;;;;1.90;1.80;;;23.90;46.70;;;;;;5015819;28;20466;-81
2022/06/01 06:14:23;;;;;;;1.83;1.73;;;23.90;46.50;;;;;;5015766;28;20498;-81
2022/06/01 06:16:54;;;;;;;1.90;1.80;;;23.90;46.60;;;;;;5015814;28;20452;-82
2022/06/01 06:19:22;;;;;;;2.00;1.90;;;23.90;46.70;;;;;;5022089;28;20455;-81
2022/06/01 06:21:50;;;;;;;1.60;1.50;;;23.80;46.60;;;;;;5016115;28;20515;-81
2022/06/01 06:24:20;;;;;;;2.13;2.03;;;23.90;46.80;;;;;;5015838;28;20475;-81
2022/06/01 06:26:48;;;;;;;1.90;1.80;;;23.80;46.60;;;;;;5015319;28;20474;-81
2022/06/01 06:29:18;;;;;;;2.47;2.27;;;23.80;46.60;;;;;;5014798;28;20947;-81
2022/06/01 06:31:47;;;;;;;1.87;1.73;;;23.80;46.60;;;;;;5014655;28;20443;-81
2022/06/01 06:34:15;;;;;;;2.37;2.00;;;23.80;46.70;;;;;;5013618;28;20483;-81
2022/06/01 06:36:44;;;;;;;1.80;1.70;;;23.80;46.70;;;;;;5024252;28;20430;-81
2022/06/01 06:39:15;;;;;;;1.80;1.70;;;23.90;46.80;;;;;;5035063;28;20457;-81
2022/06/01 06:41:43;;;;;;;1.90;1.80;;;23.90;46.60;;;;;;5034416;28;20503;-80
2022/06/01 06:44:11;;;;;;;1.80;1.70;;;23.90;46.60;;;;;;5034083;28;20421;-81
2022/06/01 06:46:39;;;;;;;2.10;2.00;;;23.90;46.60;;;;;;5033581;28;20426;-81
2022/06/01 06:49:09;;;;;;;1.60;1.60;;;23.90;46.60;;;;;;5034657;28;20445;-81
2022/06/01 06:51:37;;;;;;;1.80;1.70;;;24.00;46.60;;;;;;5028201;28;20484;-82
2022/06/01 06:54:06;;;;;;;5.43;2.03;;;24.00;46.40;;;;;;5025992;28;20467;-81
2022/06/01 06:56:35;;;;;;;2.03;1.93;;;24.10;46.60;;;;;;5034185;28;20445;-81
2022/06/01 06:59:03;;;;;;;2.10;2.00;;;24.10;46.20;;;;;;5034159;28;20449;-81
2022/06/01 07:01:31;;;;;;;2.30;2.20;;;24.20;46.50;;;;;;5034318;28;20524;-81
2022/06/01 07:04:00;;;;;;;2.10;2.00;;;24.20;46.10;;;;;;5033786;28;20449;-83
2022/06/01 07:06:30;;;;;;;1.93;1.83;;;24.20;46.00;;;;;;5030764;28;20531;-82
2022/06/01 07:09:00;;;;;;;1.73;1.63;;;24.20;46.20;;;;;;5014503;28;20506;-82
2022/06/01 07:11:29;;;;;;;1.90;1.80;;;24.30;46.00;;;;;;5015107;28;20450;-81
2022/06/01 07:13:58;;;;;;;2.30;2.10;;;24.30;46.00;;;;;;5014360;28;20423;-81
2022/06/01 07:16:27;;;;;;;2.20;2.10;;;24.30;46.20;;;;;;5016544;28;20789;-81
2022/06/01 07:18:56;;;;;;;2.17;2.07;;;24.30;46.00;;;;;;5017718;28;20475;-81
2022/06/01 07:21:25;;;;;;;2.03;1.80;;;24.40;45.90;;;;;;5018289;28;20494;-80
2022/06/01 07:23:59;;;;;;;2.23;1.90;;;24.40;45.90;;;;;;5020284;28;20497;-81
2022/06/01 07:26:29;;;;;;;1.70;1.60;;;24.40;45.90;;;;;;5029020;28;20440;-81
2022/06/01 07:28:57;;;;;;;2.60;2.00;;;24.40;45.90;;;;;;5037835;28;20474;-81
2022/06/01 07:31:25;;;;;;;1.90;1.80;;;24.50;45.80;;;;;;5037272;28;20546;-81
2022/06/01 07:33:53;;;;;;;2.10;2.00;;;24.50;45.80;;;;;;5037536;28;20526;-81
2022/06/01 07:36:21;;;;;;;1.80;1.80;;;24.50;45.70;;;;;;5037340;28;20486;-81
2022/06/01 07:44:24;;;;;;;2.30;1.90;;;24.60;45.60;;;;;;5028263;28;20532;-81
2022/06/01 07:46:52;;;;;;;1.97;1.80;;;24.60;45.80;;;;;;5036630;28;20500;-81
2022/06/01 07:49:40;;;;;;;1.90;1.80;;;24.60;45.50;;;;;;5036817;28;20422;-81
2022/06/01 07:52:28;;;;;;;3.07;2.33;;;24.60;45.60;;;;;;5037205;28;20501;-82
2022/06/01 07:54:56;;;;;;;2.00;1.90;;;24.50;45.50;;;;;;5036764;28;20510;-81
2022/06/01 07:57:26;;;;;;;1.93;1.83;;;24.50;45.60;;;;;;5036968;28;20422;-81
2022/06/01 07:59:54;;;;;;;2.87;2.10;;;24.50;45.50;;;;;;5028854;28;20487;-82
2022/06/01 08:02:23;;;;;;;1.77;1.67;;;24.50;45.70;;;;;;5032448;28;20537;-83
2022/06/01 08:04:51;;;;;;;2.10;2.00;;;24.50;45.50;;;;;;5036791;28;20437;-81
2022/06/01 08:07:19;;;;;;;1.90;1.80;;;24.40;45.60;;;;;;5037157;28;20422;-82
2022/06/01 08:09:47;;;;;;;2.70;2.00;;;24.40;45.60;;;;;;5036575;28;20453;-82
2022/06/01 08:15:02;;;;;;;2.10;2.00;;;24.40;45.70;;;;;;5036082;28;20453;-81
2022/06/01 08:17:30;;;;;;;1.80;1.70;;;24.40;45.60;;;;;;5026707;28;20455;-82
2022/06/01 08:19:58;;;;;;;2.73;1.90;;;24.30;45.70;;;;;;5020024;28;20457;-80
2022/06/01 08:22:26;;;;;;;2.20;2.07;;;24.30;45.70;;;;;;5036530;28;20471;-81
2022/06/01 08:24:54;;;;;;;2.40;2.20;;;24.30;46.10;;;;;;5036080;28;20546;-81
2022/06/01 08:27:22;;;;;;;2.93;1.97;;;24.30;45.80;;;;;;5035869;28;20446;-82
2022/06/01 08:29:50;;;;;;;2.17;2.07;;;24.30;45.90;;;;;;5036327;28;20436;-82
2022/06/01 08:32:20;;;;;;;2.00;1.90;;;24.20;45.80;;;;;;5035432;28;20493;-79
2022/06/01 08:34:48;;;;;;;2.20;2.10;;;24.30;46.00;;;;;;5025038;28;20475;-81
2022/06/01 08:37:16;;;;;;;2.00;1.90;;;24.30;45.90;;;;;;5035663;28;20443;-81
2022/06/01 08:39:45;;;;;;;2.40;2.30;;;24.20;46.00;;;;;;5036013;28;20542;-80
2022/06/01 08:42:15;;;;;;;2.13;2.00;;;24.20;45.90;;;;;;5035204;28;20469;-81
2022/06/01 08:44:44;;;;;;;2.10;2.00;;;24.20;46.10;;;;;;5035382;28;20482;-81
2022/06/01 08:47:23;;;;;;;2.30;2.20;;;24.20;46.00;;;;;;5035800;28;20438;-81
2022/06/01 08:49:52;;;;;;;1.87;1.77;;;24.20;46.00;;;;;;5045823;28;20451;-82
2022/06/01 08:52:20;;;;;;;2.53;2.33;;;24.20;46.00;;;;;;5027584;28;20442;-81
2022/06/01 08:54:48;;;;;;;2.20;2.10;;;24.30;45.90;;;;;;5037828;28;20399;-80
2022/06/01 08:57:19;;;;;;;2.10;2.00;;;24.30;46.00;;;;;;5039320;28;20439;-81
2022/06/01 08:59:50;;;;;;;2.40;2.30;;;24.30;46.00;;;;;;5038647;28;20443;-81
2022/06/01 09:02:39;;;;;;;2.33;2.23;;;24.30;45.90;;;;;;5038238;28;20470;-81
2022/06/01 09:05:10;;;;;;;2.30;2.20;;;24.40;45.90;;;;;;5037288;28;20484;-81
2022/06/01 09:07:40;;;;;;;2.23;2.13;;;24.40;45.90;;;;;;5032947;28;20475;-81
2022/06/01 09:10:33;;;;;;;2.63;2.43;;;24.40;45.60;;;;;;5030966;28;20497;-81
2022/06/01 09:13:04;;;;;;;2.00;1.90;;;24.50;45.70;;;;;;5037031;28;20446;-81
2022/06/01 09:15:40;;;;;;;2.30;2.20;;;24.50;45.60;;;;;;5036894;28;20438;-81
2022/06/01 09:18:10;;;;;;;2.10;2.00;;;24.60;45.70;;;;;;5036885;28;20421;-81
2022/06/01 09:23:24;;;;;;;2.17;2.07;;;24.70;45.60;;;;;;5036791;28;20521;-83
2022/06/01 09:25:53;;;;;;;2.10;2.00;;;24.80;45.60;;;;;;5025455;28;20552;-81
2022/06/01 09:28:23;;;;;;;2.00;1.90;;;24.90;45.40;;;;;;5016505;28;21021;-81
2022/06/01 09:30:55;;;;;;;2.23;2.13;;;24.90;45.20;;;;;;5016103;28;20555;-81
2022/06/01 09:33:27;;;;;;;2.10;2.00;;;25.10;45.10;;;;;;5016345;28;20506;-82
2022/06/01 09:36:03;;;;;;;2.50;2.40;;;25.10;44.70;;;;;;5016431;28;20429;-81
2022/06/01 09:38:37;;;;;;;2.70;2.50;;;25.20;44.80;;;;;;5015488;28;20452;-82
2022/06/01 09:41:09;;;;;;;2.13;1.93;;;25.20;44.60;;;;;;5016341;28;20551;-81
2022/06/01 09:43:39;;;;;;;2.13;2.07;;;25.30;44.70;;;;;;5024276;28;20441;-82
2022/06/01 09:46:07;;;;;;;2.50;2.30;;;25.30;44.40;;;;;;5017018;28;20451;-81
2022/06/01 09:48:39;;;;;;;2.10;2.00;;;25.40;44.30;;;;;;5017425;28;20415;-82
2022/06/01 09:51:12;;;;;;;2.33;2.23;;;25.40;44.20;;;;;;5015866;28;20499;-81
2022/06/01 09:53:42;;;;;;;2.33;2.17;;;25.60;44.20;;;;;;5016119;28;20522;-82
2022/06/01 09:56:10;;;;;;;2.00;1.90;;;25.70;44.10;;;;;;5015898;28;20440;-81
2022/06/01 10:07:01;;;;;;;2.23;2.13;;;26.50;43.70;;;;;;5036023;28;20436;-81
2022/06/01 10:09:30;;;;;;;2.13;2.00;;;26.60;43.20;;;;;;5034969;28;20470;-81
2022/06/01 10:12:17;;;;;;;2.00;1.90;;;26.80;43.10;;;;;;5022609;28;20440;-81
2022/06/01 10:14:51;;;;;;;2.20;2.10;;;26.90;42.90;;;;;;5015994;28;20475;-81
2022/06/01 10:17:21;;;;;;;2.33;2.13;;;27.00;42.80;;;;;;5022601;28;20434;-80
2022/06/01 10:19:54;;;;;;;5.63;2.00;;;27.20;42.60;;;;;;5001457;28;20472;-81
2022/06/01 10:22:27;;;;;;;1.73;1.73;;;27.30;42.00;;;;;;5001022;28;20966;-82
2022/06/01 10:24:56;;;;;;;2.33;2.23;;;27.60;42.00;;;;;;5004780;28;20443;-82
2022/06/01 10:27:28;;;;;;;3.13;2.40;;;27.70;41.70;;;;;;4996404;28;20954;-80
2022/06/01 10:30:04;;;;;;;2.47;2.37;;;27.70;41.20;;;;;;4995604;28;20507;-80
2022/06/01 10:32:36;;;;;;;2.57;2.47;;;27.70;41.10;;;;;;4996016;28;20448;-81
2022/06/01 10:35:11;;;;;;;3.23;3.03;;;27.60;41.20;;;;;;5022614;28;20415;-80
2022/06/01 10:37:41;;;;;;;3.60;3.40;;;27.60;41.10;;;;;;5031933;28;20443;-81
2022/06/01 10:40:12;;;;;;;3.87;3.67;;;27.80;41.10;;;;;;5029096;28;20461;-83
2022/06/01 10:45:35;;;;;;;4.20;3.80;;;28.00;41.00;;;;;;5034458;28;20563;-82
2022/06/01 10:48:06;;;;;;;5.20;3.87;;;28.20;40.50;;;;;;5015112;28;20418;-81
2022/06/01 10:50:39;;;;;;;3.73;3.50;;;28.30;40.30;;;;;;5018208;28;20552;-84
2022/06/01 10:53:14;;;;;;;3.60;3.40;;;28.40;40.10;;;;;;5020366;28;20818;-83
2022/06/01 10:55:43;;;;;;;3.53;3.33;;;28.40;39.90;;;;;;5020713;28;20435;-83
2022/06/01 10:58:13;;;;;;;3.40;3.20;;;28.40;39.40;;;;;;5016945;28;20449;-83
2022/06/01 11:00:46;;;;;;;3.23;2.93;;;28.40;40.00;;;;;;5000344;28;20449;-83
2022/06/01 11:03:36;;;;;;;3.23;3.13;;;28.70;39.90;;;;;;4999738;28;20484;-82
2022/06/01 11:06:13;;;;;;;2.73;2.60;;;28.80;39.00;;;;;;4999760;28;20483;-81
2022/06/01 11:08:47;;;;;;;3.00;2.90;;;28.80;38.80;;;;;;4999087;28;20503;-81
2022/06/01 11:11:19;;;;;;;2.93;2.83;;;29.00;38.50;;;;;;4998825;28;20473;-82
2022/06/01 11:13:58;;;;;;;2.83;2.50;;;29.10;38.30;;;;;;4999728;28;20453;-81
2022/06/01 11:16:32;;;;;;;3.93;2.50;;;29.40;38.20;;;;;;4999563;28;20507;-81
2022/06/01 11:19:05;;;;;;;2.17;2.07;;;30.00;37.20;;;;;;4999141;28;20449;-82
2022/06/01 11:21:39;;;;;;;2.60;2.40;;;31.00;35.90;;;;;;4999605;28;20473;-80
2022/06/01 11:24:20;;;;;;;2.03;1.90;;;30.80;34.30;;;;;;4999297;28;20457;-82
2022/06/01 11:27:22;;;;;;;2.37;2.27;;;31.20;35.00;;;;;;5004267;28;20487;-82
2022/06/01 11:30:00;;;;;;;1.80;1.70;;;31.80;32.50;;;;;;5018191;28;20475;-81
2022/06/01 11:32:30;;;;;;;2.40;2.20;;;30.70;33.40;;;;;;5017703;28;20522;-81
2022/06/01 11:35:01;;;;;;;2.33;2.23;;;29.90;34.60;;;;;;5017097;28;20528;-81
2022/06/01 11:37:33;;;;;;;2.10;2.00;;;29.50;35.60;;;;;;5019135;28;20440;-82
2022/06/01 11:40:05;;;;;;;2.30;1.93;;;29.30;36.00;;;;;;5018617;28;20477;-81
2022/06/01 11:42:34;;;;;;;2.20;2.10;;;29.10;36.20;;;;;;5019149;28;20465;-81
2022/06/01 11:45:04;;;;;;;2.10;1.90;;;28.90;36.50;;;;;;5018199;28;20534;-83
2022/06/01 11:47:36;;;;;;;2.00;1.90;;;28.50;36.80;;;;;;5011149;28;20482;-79
2022/06/01 11:50:15;;;;;;;2.10;2.00;;;28.30;37.20;;;;;;5011031;28;20507;-81
2022/06/01 11:52:47;;;;;;;2.27;2.10;;;28.20;37.60;;;;;;5016907;28;21081;-82
2022/06/01 11:55:24;;;;;;;1.80;1.70;;;28.20;37.80;;;;;;5017105;28;20458;-82
2022/06/01 11:57:53;;;;;;;3.10;2.20;;;28.30;37.70;;;;;;5017004;28;20472;-81
2022/06/01 12:00:26;;;;;;;2.17;2.07;;;28.20;37.50;;;;;;5016610;28;20502;-80
2022/06/01 12:02:55;;;;;;;2.27;2.13;;;28.10;37.50;;;;;;5021389;28;20453;-84
2022/06/01 12:05:24;;;;;;;2.03;1.50;;;28.00;37.90;;;;;;5026777;28;20472;-82
2022/06/01 12:07:56;;;;;;;2.03;1.80;;;27.70;37.90;;;;;;5021431;28;21088;-83
2022/06/01 12:10:27;;;;;;;2.47;2.27;;;27.50;38.30;;;;;;5021804;28;20427;-82
2022/06/01 12:13:05;;;;;;;2.13;2.03;;;27.40;38.80;;;;;;5020138;28;20448;-83
2022/06/01 12:15:40;;;;;;;2.30;2.20;;;28.20;39.80;;;;;;5019786;28;20471;-82
2022/06/01 12:18:23;;;;;;;2.30;2.20;;;28.90;37.60;;;;;;5018564;28;20446;-80
2022/06/01 12:20:53;;;;;;;2.03;1.93;;;29.10;36.60;;;;;;5017826;28;20472;-82
2022/06/01 12:29:53;;;;;;;1.83;1.73;;;29.50;36.10;;;;;;5018234;28;20482;-82
2022/06/01 12:32:21;;;;;;;1.70;1.60;;;30.00;36.00;;;;;;5018925;28;20467;-82
2022/06/01 12:35:05;;;;;;;2.40;1.50;;;30.20;35.60;;;;;;5019153;28;20452;-83
2022/06/01 12:37:38;;;;;;;1.63;1.63;;;30.30;35.20;;;;;;5018760;28;20478;-82
2022/06/01 12:40:14;;;;;;;1.97;1.40;;;30.40;35.00;;;;;;5018893;28;20448;-82
2022/06/01 12:42:44;;;;;;;3.17;1.70;;;30.50;34.90;;;;;;5026477;28;20527;-81
2022/06/01 12:45:16;;;;;;;2.50;1.50;;;30.60;34.90;;;;;;5031391;28;20467;-82
2022/06/01 12:47:57;;;;;;;5.37;1.50;;;30.70;34.60;;;;;;5038448;28;20477;-81
2022/06/01 12:50:27;;;;;;;1.87;1.60;;;30.70;34.40;;;;;;5037876;28;20474;-81
2022/06/01 12:53:13;;;;;;;1.83;1.73;;;30.90;34.40;;;;;;5037505;28;20453;-81
2022/06/01 12:55:42;;;;;;;2.33;1.50;;;30.80;34.20;;;;;;5037403;28;20510;-82
2022/06/01 12:58:16;;;;;;;2.10;1.43;;;30.70;33.70;;;;;;5037164;28;20448;-81
2022/06/01 13:00:49;;;;;;;2.23;1.70;;;30.70;34.00;;;;;;5036049;28;20464;-81
2022/06/01 13:03:19;;;;;;;2.13;1.50;;;30.60;34.20;;;;;;5028968;28;20454;-81
2022/06/01 13:05:49;;;;;;;1.93;1.60;;;30.20;34.10;;;;;;5037510;28;21016;-81
2022/06/01 13:08:18;;;;;;;1.87;1.73;;;29.80;34.70;;;;;;5037671;28;20443;-81
2022/06/01 13:10:59;;;;;;;1.80;1.70;;;29.50;35.20;;;;;;5037126;28;20451;-81
2022/06/01 13:13:29;;;;;;;1.70;1.60;;;29.20;35.60;;;;;;5037366;28;20498;-81
2022/06/01 13:16:02;;;;;;;1.63;1.43;;;29.30;36.20;;;;;;5036758;28;20501;-81
2022/06/01 13:18:35;;;;;;;1.60;1.50;;;29.40;35.80;;;;;;5036803;28;20482;-81
2022/06/01 13:21:07;;;;;;;2.27;1.20;;;29.40;35.60;;;;;;5034953;28;20494;-82
2022/06/01 13:23:43;;;;;;;1.50;1.40;;;29.30;35.40;;;;;;5017248;28;20445;-81
2022/06/01 13:26:15;;;;;;;1.23;1.20;;;29.20;35.80;;;;;;5017374;28;20551;-81
2022/06/01 13:28:45;;;;;;;1.10;1.10;;;29.30;35.90;;;;;;5016607;28;20448;-82
2022/06/01 13:31:13;;;;;;;1.13;1.13;;;29.30;35.50;;;;;;5015974;28;20469;-81
2022/06/01 13:33:43;;;;;;;1.20;1.10;;;29.10;35.50;;;;;;5014576;28;20445;-82
2022/06/01 13:36:14;;;;;;;1.10;1.10;;;28.90;35.50;;;;;;5014335;28;20448;-81
2022/06/01 13:38:43;;;;;;;1.33;1.23;;;28.60;36.00;;;;;;5016285;28;20423;-80
2022/06/01 13:41:16;;;;;;;1.57;1.33;;;28.40;36.10;;;;;;5015580;28;20465;-81
2022/06/01 13:43:46;;;;;;;1.40;1.40;;;28.30;36.40;;;;;;5016267;28;20436;-81